sensor_id;sensor_type;location;lat;lon;timestamp;pressure;altitude;pressure_sealevel;temperature;humidity
19845;BME280;10083;51.038;7.012;2023-07-20T00:01:18;102336.88;;;18.32;100.00
19845;BME280;10083;51.038;7.012;2023-07-20T00:03:45;102359.44;;;18.34;100.00
19845;BME280;10083;51.038;7.012;2023-07-20T00:06:14;102380.28;;;18.32;100.00
19845;BME280;10083;51.038;7.012;2023-07-20T00:08:41;102405.88;;;18.55;100.00
19845;BME280;10083;51.038;7.012;2023-07-20T00:11:08;102422.16;;;18.55;100.00
19845;BME280;10083;51.038;7.012;2023-07-20T00:13:39;102440.72;;;18.37;100.00
19845;BME280;10083;51.038;7.012;2023-07-20T00:16:07;102454.44;;;18.64;100.00
19845;BME280;10083;51.038;7.012;2023-07-20T00:18:34;102467.94;;;18.34;100.00
19845;BME280;10083;51.038;7.012;2023-07-20T00:21:14;102491.19;;;18.44;100.00
19845;BME280;10083;51.038;7.012;2023-07-20T00:23:42;102514.06;;;18.34;100.00
19845;BME280;10083;51.038;7.012;2023-07-20T00:26:10;102524.84;;;18.70;100.00
19845;BME280;10083;51.038;7.012;2023-07-20T00:28:39;102548.81;;;18.54;100.00
19845;BME280;10083;51.038;7.012;2023-07-20T00:31:07;102578.00;;;18.44;100.00
19845;BME280;10083;51.038;7.012;2023-07-20T00:33:36;102597.28;;;18.68;100.00
19845;BME280;10083;51.038;7.012;2023-07-20T00:36:04;102617.47;;;18.58;100.00
19845;BME280;10083;51.038;7.012;2023-07-20T00:38:31;102640.41;;;18.44;100.00
19845;BME280;10083;51.038;7.012;2023-07-20T00:40:58;102666.44;;;18.51;100.00
19845;BME280;10083;51.038;7.012;2023-07-20T00:43:26;102684.81;;;18.40;100.00
19845;BME280;10083;51.038;7.012;2023-07-20T00:45:56;102708.88;;;18.56;100.00
19845;BME280;10083;51.038;7.012;2023-07-20T00:48:23;102734.66;;;18.75;100.00
19845;BME280;10083;51.038;7.012;2023-07-20T00:50:51;102744.63;;;18.73;100.00
19845;BME280;10083;51.038;7.012;2023-07-20T00:53:19;102763.72;;;18.70;100.00
19845;BME280;10083;51.038;7.012;2023-07-20T00:55:47;102788.84;;;18.78;100.00
19845;BME280;10083;51.038;7.012;2023-07-20T00:58:15;102811.09;;;18.57;100.00
19845;BME280;10083;51.038;7.012;2023-07-20T01:00:45;102828.78;;;18.73;100.00
19845;BME280;10083;51.038;7.012;2023-07-20T01:03:14;102839.56;;;18.76;100.00
19845;BME280;10083;51.038;7.012;2023-07-20T01:05:51;102847.38;;;18.91;100.00
19845;BME280;10083;51.038;7.012;2023-07-20T01:08:27;102851.09;;;18.87;100.00
19845;BME280;10083;51.038;7.012;2023-07-20T01:11:06;102860.78;;;18.59;100.00
19845;BME280;10083;51.038;7.012;2023-07-20T01:13:37;102889.53;;;18.67;100.00
19845;BME280;10083;51.038;7.012;2023-07-20T01:16:04;102901.59;;;18.56;100.00
19845;BME280;10083;51.038;7.012;2023-07-20T01:18:33;102921.88;;;18.79;100.00
19845;BME280;10083;51.038;7.012;2023-07-20T01:21:03;102925.72;;;18.68;100.00
19845;BME280;10083;51.038;7.012;2023-07-20T01:23:56;102943.72;;;18.73;100.00
19845;BME280;10083;51.038;7.012;2023-07-20T01:26:36;102954.56;;;18.73;100.00
19845;BME280;10083;51.038;7.012;2023-07-20T01:29:14;102972.94;;;18.61;100.00
19845;BME280;10083;51.038;7.012;2023-07-20T01:31:47;102980.28;;;18.57;100.00
19845;BME280;10083;51.038;7.012;2023-07-20T01:34:17;103007.06;;;18.74;100.00
19845;BME280;10083;51.038;7.012;2023-07-20T01:36:46;103000.34;;;18.45;100.00
19845;BME280;10083;51.038;7.012;2023-07-20T01:39:15;103036.94;;;18.72;100.00
19845;BME280;10083;51.038;7.012;2023-07-20T01:41:44;103051.59;;;18.64;100.00
19845;BME280;10083;51.038;7.012;2023-07-20T01:44:12;103072.41;;;18.65;100.00
19845;BME280;10083;51.038;7.012;2023-07-20T01:46:40;103097.09;;;18.95;100.00
19845;BME280;10083;51.038;7.012;2023-07-20T01:49:09;103086.69;;;18.74;100.00
19845;BME280;10083;51.038;7.012;2023-07-20T01:51:36;103122.66;;;18.84;100.00
19845;BME280;10083;51.038;7.012;2023-07-20T01:54:03;103155.16;;;18.88;100.00
19845;BME280;10083;51.038;7.012;2023-07-20T01:56:30;103181.31;;;18.94;100.00
19845;BME280;10083;51.038;7.012;2023-07-20T01:58:57;103197.13;;;18.72;100.00
19845;BME280;10083;51.038;7.012;2023-07-20T02:01:24;103224.50;;;18.60;100.00
19845;BME280;10083;51.038;7.012;2023-07-20T02:03:54;103333.31;;;18.42;100.00
19845;BME280;10083;51.038;7.012;2023-07-20T02:06:23;103476.19;;;18.46;100.00
19845;BME280;10083;51.038;7.012;2023-07-20T02:08:51;103709.69;;;18.32;100.00
19845;BME280;10083;51.038;7.012;2023-07-20T02:11:18;103926.84;;;18.20;100.00
19845;BME280;10083;51.038;7.012;2023-07-20T02:13:46;104263.31;;;18.31;100.00
19845;BME280;10083;51.038;7.012;2023-07-20T02:16:14;104559.91;;;18.08;100.00
19845;BME280;10083;51.038;7.012;2023-07-20T02:18:41;104865.66;;;18.16;100.00
19845;BME280;10083;51.038;7.012;2023-07-20T02:21:10;105090.75;;;18.05;100.00
19845;BME280;10083;51.038;7.012;2023-07-20T02:23:39;105252.72;;;18.09;100.00
19845;BME280;10083;51.038;7.012;2023-07-20T02:26:08;105404.34;;;17.92;100.00
19845;BME280;10083;51.038;7.012;2023-07-20T02:28:37;105621.53;;;17.98;100.00
19845;BME280;10083;51.038;7.012;2023-07-20T02:31:05;105765.03;;;17.86;100.00
19845;BME280;10083;51.038;7.012;2023-07-20T02:33:32;106005.38;;;18.10;100.00
19845;BME280;10083;51.038;7.012;2023-07-20T02:36:00;106250.47;;;18.07;100.00
19845;BME280;10083;51.038;7.012;2023-07-20T02:38:27;106373.44;;;18.04;100.00
19845;BME280;10083;51.038;7.012;2023-07-20T02:40:56;106542.22;;;17.94;100.00
19845;BME280;10083;51.038;7.012;2023-07-20T02:43:24;106737.41;;;17.90;100.00
19845;BME280;10083;51.038;7.012;2023-07-20T02:45:53;106956.97;;;17.84;100.00
19845;BME280;10083;51.038;7.012;2023-07-20T02:48:20;107113.78;;;17.91;100.00
19845;BME280;10083;51.038;7.012;2023-07-20T02:50:47;107340.72;;;18.05;100.00
19845;BME280;10083;51.038;7.012;2023-07-20T02:53:17;107496.78;;;17.97;100.00
19845;BME280;10083;51.038;7.012;2023-07-20T02:55:46;107741.09;;;17.97;100.00
19845;BME280;10083;51.038;7.012;2023-07-20T02:58:15;107982.72;;;17.97;100.00
19845;BME280;10083;51.038;7.012;2023-07-20T03:00:42;108229.66;;;18.08;100.00
19845;BME280;10083;51.038;7.012;2023-07-20T03:03:10;108416.41;;;17.99;100.00
19845;BME280;10083;51.038;7.012;2023-07-20T03:05:40;108564.97;;;18.14;100.00
19845;BME280;10083;51.038;7.012;2023-07-20T03:08:08;108676.19;;;18.12;100.00
19845;BME280;10083;51.038;7.012;2023-07-20T03:10:39;108789.72;;;18.04;100.00
19845;BME280;10083;51.038;7.012;2023-07-20T03:13:07;108962.47;;;18.14;100.00
19845;BME280;10083;51.038;7.012;2023-07-20T03:15:36;109044.50;;;17.98;100.00
19845;BME280;10083;51.038;7.012;2023-07-20T03:18:03;109303.84;;;18.03;100.00
19845;BME280;10083;51.038;7.012;2023-07-20T03:20:31;109457.63;;;17.91;100.00
19845;BME280;10083;51.038;7.012;2023-07-20T03:22:58;109708.28;;;18.00;100.00
19845;BME280;10083;51.038;7.012;2023-07-20T03:25:27;109859.31;;;18.19;100.00
19845;BME280;10083;51.038;7.012;2023-07-20T03:27:54;109916.38;;;18.19;100.00
19845;BME280;10083;51.038;7.012;2023-07-20T03:30:22;109916.41;;;17.90;100.00
19845;BME280;10083;51.038;7.012;2023-07-20T03:32:51;110089.97;;;17.87;100.00
19845;BME280;10083;51.038;7.012;2023-07-20T03:35:18;110260.84;;;17.94;100.00
19845;BME280;10083;51.038;7.012;2023-07-20T03:37:45;110371.09;;;18.00;100.00
19845;BME280;10083;51.038;7.012;2023-07-20T03:40:24;110460.13;;;17.86;100.00
19845;BME280;10083;51.038;7.012;2023-07-20T03:42:51;110664.78;;;17.86;100.00
19845;BME280;10083;51.038;7.012;2023-07-20T03:45:19;110838.81;;;17.88;100.00
19845;BME280;10083;51.038;7.012;2023-07-20T03:47:51;110957.81;;;17.59;100.00
19845;BME280;10083;51.038;7.012;2023-07-20T03:50:18;111312.84;;;17.84;100.00
19845;BME280;10083;51.038;7.012;2023-07-20T03:52:46;111632.50;;;17.77;100.00
19845;BME280;10083;51.038;7.012;2023-07-20T03:55:15;111904.53;;;17.87;100.00
19845;BME280;10083;51.038;7.012;2023-07-20T03:57:42;111882.94;;;16.96;100.00
19845;BME280;10083;51.038;7.012;2023-07-20T04:00:11;112204.19;;;17.93;100.00
19845;BME280;10083;51.038;7.012;2023-07-20T04:02:40;112062.28;;;17.12;100.00
19845;BME280;10083;51.038;7.012;2023-07-20T04:05:09;112218.16;;;17.89;100.00
19845;BME280;10083;51.038;7.012;2023-07-20T04:07:36;111657.47;;;14.55;100.00
19845;BME280;10083;51.038;7.012;2023-07-20T04:10:04;110364.78;;;7.25;100.00
19845;BME280;10083;51.038;7.012;2023-07-20T04:12:31;112534.63;;;17.98;100.00
19845;BME280;10083;51.038;7.012;2023-07-20T04:14:58;112557.44;;;17.86;100.00
19845;BME280;10083;51.038;7.012;2023-07-20T04:17:29;112645.50;;;17.81;100.00
19845;BME280;10083;51.038;7.012;2023-07-20T04:19:57;112544.41;;;17.83;100.00
19845;BME280;10083;51.038;7.012;2023-07-20T04:22:32;112574.50;;;17.85;100.00
19845;BME280;10083;51.038;7.012;2023-07-20T04:25:00;112665.53;;;18.01;100.00
19845;BME280;10083;51.038;7.012;2023-07-20T04:27:30;112632.38;;;18.11;100.00
19845;BME280;10083;51.038;7.012;2023-07-20T04:29:59;112533.97;;;18.13;100.00
19845;BME280;10083;51.038;7.012;2023-07-20T04:32:26;112405.00;;;18.11;100.00
19845;BME280;10083;51.038;7.012;2023-07-20T04:34:54;112298.38;;;17.99;100.00
19845;BME280;10083;51.038;7.012;2023-07-20T04:37:23;112259.56;;;18.00;100.00
19845;BME280;10083;51.038;7.012;2023-07-20T04:39:52;112333.72;;;18.06;100.00
19845;BME280;10083;51.038;7.012;2023-07-20T04:42:22;112246.97;;;18.01;100.00
19845;BME280;10083;51.038;7.012;2023-07-20T04:44:49;112213.56;;;18.16;100.00
19845;BME280;10083;51.038;7.012;2023-07-20T04:47:16;112162.31;;;18.19;100.00
19845;BME280;10083;51.038;7.012;2023-07-20T04:49:43;112043.88;;;18.14;100.00
19845;BME280;10083;51.038;7.012;2023-07-20T04:52:13;112052.03;;;18.21;100.00
19845;BME280;10083;51.038;7.012;2023-07-20T04:54:40;111916.91;;;18.13;100.00
19845;BME280;10083;51.038;7.012;2023-07-20T04:57:12;111869.91;;;18.07;100.00
19845;BME280;10083;51.038;7.012;2023-07-20T04:59:44;111959.22;;;18.18;100.00
19845;BME280;10083;51.038;7.012;2023-07-20T05:02:11;111950.84;;;18.31;100.00
19845;BME280;10083;51.038;7.012;2023-07-20T05:04:39;111869.03;;;18.36;100.00
19845;BME280;10083;51.038;7.012;2023-07-20T05:07:08;111740.91;;;18.26;100.00
19845;BME280;10083;51.038;7.012;2023-07-20T05:09:35;111668.66;;;18.28;100.00
19845;BME280;10083;51.038;7.012;2023-07-20T05:12:05;111709.91;;;18.17;100.00
19845;BME280;10083;51.038;7.012;2023-07-20T05:14:34;111785.25;;;18.48;100.00
19845;BME280;10083;51.038;7.012;2023-07-20T05:17:02;111652.88;;;18.33;100.00
19845;BME280;10083;51.038;7.012;2023-07-20T05:19:29;111625.81;;;18.19;100.00
19845;BME280;10083;51.038;7.012;2023-07-20T05:22:04;111683.16;;;18.13;100.00
19845;BME280;10083;51.038;7.012;2023-07-20T05:24:32;111875.84;;;18.33;100.00
19845;BME280;10083;51.038;7.012;2023-07-20T05:27:00;111891.19;;;18.39;100.00
19845;BME280;10083;51.038;7.012;2023-07-20T05:29:27;111921.44;;;18.42;100.00
19845;BME280;10083;51.038;7.012;2023-07-20T05:31:56;111871.44;;;18.63;100.00
19845;BME280;10083;51.038;7.012;2023-07-20T05:34:24;111676.78;;;18.58;100.00
19845;BME280;10083;51.038;7.012;2023-07-20T05:36:52;111509.31;;;18.60;100.00
19845;BME280;10083;51.038;7.012;2023-07-20T05:39:19;111377.34;;;18.64;100.00
19845;BME280;10083;51.038;7.012;2023-07-20T05:41:46;111281.03;;;18.62;100.00
19845;BME280;10083;51.038;7.012;2023-07-20T05:44:14;111367.16;;;18.70;100.00
19845;BME280;10083;51.038;7.012;2023-07-20T05:46:41;111348.78;;;18.76;100.00
19845;BME280;10083;51.038;7.012;2023-07-20T05:49:10;111210.97;;;18.68;100.00
19845;BME280;10083;51.038;7.012;2023-07-20T05:51:37;111129.44;;;18.85;100.00
19845;BME280;10083;51.038;7.012;2023-07-20T05:54:05;110916.72;;;18.63;100.00
19845;BME280;10083;51.038;7.012;2023-07-20T05:56:32;110984.09;;;18.66;100.00
19845;BME280;10083;51.038;7.012;2023-07-20T05:58:59;110976.88;;;18.58;100.00
19845;BME280;10083;51.038;7.012;2023-07-20T06:01:27;110981.59;;;18.51;100.00
19845;BME280;10083;51.038;7.012;2023-07-20T06:03:55;110986.00;;;18.67;100.00
19845;BME280;10083;51.038;7.012;2023-07-20T06:06:24;111032.41;;;18.68;100.00
19845;BME280;10083;51.038;7.012;2023-07-20T06:08:51;111062.75;;;18.56;100.00
19845;BME280;10083;51.038;7.012;2023-07-20T06:11:19;111222.03;;;18.69;100.00
19845;BME280;10083;51.038;7.012;2023-07-20T06:13:49;111137.25;;;18.73;100.00
19845;BME280;10083;51.038;7.012;2023-07-20T06:16:18;111063.28;;;18.69;100.00
19845;BME280;10083;51.038;7.012;2023-07-20T06:18:45;110999.31;;;18.81;100.00
19845;BME280;10083;51.038;7.012;2023-07-20T06:21:12;110777.50;;;18.84;100.00
19845;BME280;10083;51.038;7.012;2023-07-20T06:23:41;110588.09;;;19.04;100.00
19845;BME280;10083;51.038;7.012;2023-07-20T06:26:09;110240.94;;;18.87;100.00
19845;BME280;10083;51.038;7.012;2023-07-20T06:28:37;109881.81;;;19.17;100.00
19845;BME280;10083;51.038;7.012;2023-07-20T06:31:04;109295.59;;;19.25;100.00
19845;BME280;10083;51.038;7.012;2023-07-20T06:33:32;108779.28;;;19.23;100.00
19845;BME280;10083;51.038;7.012;2023-07-20T06:36:03;108375.16;;;19.00;100.00
19845;BME280;10083;51.038;7.012;2023-07-20T06:38:31;108267.69;;;19.21;100.00
19845;BME280;10083;51.038;7.012;2023-07-20T06:41:00;108157.94;;;19.06;100.00
19845;BME280;10083;51.038;7.012;2023-07-20T06:43:28;108149.09;;;19.25;100.00
19845;BME280;10083;51.038;7.012;2023-07-20T06:45:55;108011.81;;;19.67;100.00
19845;BME280;10083;51.038;7.012;2023-07-20T06:48:22;107716.47;;;19.57;100.00
19845;BME280;10083;51.038;7.012;2023-07-20T06:50:49;107489.69;;;19.58;100.00
19845;BME280;10083;51.038;7.012;2023-07-20T06:53:17;107237.31;;;19.54;100.00
19845;BME280;10083;51.038;7.012;2023-07-20T06:55:54;107061.16;;;19.50;100.00
19845;BME280;10083;51.038;7.012;2023-07-20T06:58:24;106963.28;;;19.52;100.00
19845;BME280;10083;51.038;7.012;2023-07-20T07:00:52;106807.53;;;19.84;100.00
19845;BME280;10083;51.038;7.012;2023-07-20T07:03:20;106466.88;;;20.02;100.00
19845;BME280;10083;51.038;7.012;2023-07-20T07:05:49;106157.41;;;20.41;100.00
19845;BME280;10083;51.038;7.012;2023-07-20T07:08:16;105756.81;;;20.30;100.00
19845;BME280;10083;51.038;7.012;2023-07-20T07:10:43;105482.81;;;20.45;100.00
19845;BME280;10083;51.038;7.012;2023-07-20T07:13:11;105209.31;;;20.24;100.00
19845;BME280;10083;51.038;7.012;2023-07-20T07:15:48;105095.75;;;20.11;100.00
19845;BME280;10083;51.038;7.012;2023-07-20T07:18:15;105003.19;;;20.08;100.00
19845;BME280;10083;51.038;7.012;2023-07-20T07:20:51;104917.00;;;20.10;100.00
19845;BME280;10083;51.038;7.012;2023-07-20T07:23:19;104889.88;;;20.35;100.00
19845;BME280;10083;51.038;7.012;2023-07-20T07:25:46;104755.50;;;20.26;100.00
19845;BME280;10083;51.038;7.012;2023-07-20T07:28:14;104625.66;;;20.54;100.00
19845;BME280;10083;51.038;7.012;2023-07-20T07:30:41;104474.22;;;20.12;100.00
19845;BME280;10083;51.038;7.012;2023-07-20T07:33:10;104419.91;;;19.73;100.00
19845;BME280;10083;51.038;7.012;2023-07-20T07:35:38;104419.00;;;19.75;100.00
19845;BME280;10083;51.038;7.012;2023-07-20T07:38:05;104436.09;;;20.12;100.00
19845;BME280;10083;51.038;7.012;2023-07-20T07:40:46;104402.47;;;20.32;100.00
19845;BME280;10083;51.038;7.012;2023-07-20T07:43:13;104400.28;;;20.87;100.00
19845;BME280;10083;51.038;7.012;2023-07-20T07:45:41;104318.31;;;21.12;100.00
19845;BME280;10083;51.038;7.012;2023-07-20T07:48:19;104198.06;;;21.32;100.00
19845;BME280;10083;51.038;7.012;2023-07-20T07:50:48;104115.00;;;21.56;100.00
19845;BME280;10083;51.038;7.012;2023-07-20T07:53:15;104004.78;;;21.11;100.00
19845;BME280;10083;51.038;7.012;2023-07-20T07:55:43;103935.78;;;21.07;100.00
19845;BME280;10083;51.038;7.012;2023-07-20T07:58:11;103906.84;;;20.97;100.00
19845;BME280;10083;51.038;7.012;2023-07-20T08:00:39;103887.53;;;20.56;100.00
19845;BME280;10083;51.038;7.012;2023-07-20T08:03:09;103937.16;;;20.76;100.00
19845;BME280;10083;51.038;7.012;2023-07-20T08:05:38;103973.88;;;21.13;100.00
19845;BME280;10083;51.038;7.012;2023-07-20T08:08:06;103914.44;;;20.79;100.00
19845;BME280;10083;51.038;7.012;2023-07-20T08:10:34;103910.97;;;21.24;100.00
19845;BME280;10083;51.038;7.012;2023-07-20T08:13:02;103879.84;;;21.37;100.00
19845;BME280;10083;51.038;7.012;2023-07-20T08:15:30;103817.34;;;20.73;100.00
19845;BME280;10083;51.038;7.012;2023-07-20T08:20:24;103801.09;;;20.67;100.00
19845;BME280;10083;51.038;7.012;2023-07-20T08:23:01;103839.28;;;20.64;100.00
19845;BME280;10083;51.038;7.012;2023-07-20T08:25:28;103841.56;;;20.35;100.00
19845;BME280;10083;51.038;7.012;2023-07-20T08:27:55;103859.69;;;20.37;100.00
19845;BME280;10083;51.038;7.012;2023-07-20T08:30:23;103852.75;;;20.13;100.00
19845;BME280;10083;51.038;7.012;2023-07-20T08:32:51;103877.16;;;20.18;100.00
19845;BME280;10083;51.038;7.012;2023-07-20T08:35:20;103904.59;;;20.68;100.00
19845;BME280;10083;51.038;7.012;2023-07-20T08:37:48;103890.41;;;21.05;100.00
19845;BME280;10083;51.038;7.012;2023-07-20T08:40:17;103825.75;;;21.11;100.00
19845;BME280;10083;51.038;7.012;2023-07-20T08:42:57;103809.63;;;21.93;100.00
19845;BME280;10083;51.038;7.012;2023-07-20T08:45:26;103793.91;;;22.05;100.00
19845;BME280;10083;51.038;7.012;2023-07-20T08:47:56;103764.56;;;21.72;100.00
19845;BME280;10083;51.038;7.012;2023-07-20T08:50:25;103772.00;;;21.65;100.00
19845;BME280;10083;51.038;7.012;2023-07-20T08:52:56;103784.25;;;21.88;100.00
19845;BME280;10083;51.038;7.012;2023-07-20T08:55:26;103753.06;;;22.38;100.00
19845;BME280;10083;51.038;7.012;2023-07-20T08:57:54;103707.06;;;22.55;100.00
19845;BME280;10083;51.038;7.012;2023-07-20T09:00:41;103587.63;;;23.23;100.00
19845;BME280;10083;51.038;7.012;2023-07-20T09:03:08;103506.34;;;23.55;100.00
19845;BME280;10083;51.038;7.012;2023-07-20T09:05:37;103457.69;;;23.64;100.00
19845;BME280;10083;51.038;7.012;2023-07-20T09:08:06;103387.41;;;23.89;100.00
19845;BME280;10083;51.038;7.012;2023-07-20T09:10:36;103401.09;;;23.38;100.00
19845;BME280;10083;51.038;7.012;2023-07-20T09:13:04;103492.31;;;22.49;100.00
19845;BME280;10083;51.038;7.012;2023-07-20T09:15:33;103551.63;;;22.14;100.00
19845;BME280;10083;51.038;7.012;2023-07-20T09:18:02;103581.59;;;22.49;100.00
19845;BME280;10083;51.038;7.012;2023-07-20T09:20:31;103568.72;;;22.20;100.00
19845;BME280;10083;51.038;7.012;2023-07-20T09:22:59;59998.72;;;-144.84;100.00
19845;BME280;10083;51.038;7.012;2023-07-20T09:25:32;103435.94;;;23.60;nan
19845;BME280;10083;51.038;7.012;2023-07-20T09:28:03;103313.91;;;24.02;nan
19845;BME280;10083;51.038;7.012;2023-07-20T09:30:31;103265.38;;;23.84;nan
19845;BME280;10083;51.038;7.012;2023-07-20T09:32:58;103300.38;;;23.98;nan
19845;BME280;10083;51.038;7.012;2023-07-20T09:35:27;103380.00;;;23.42;nan
19845;BME280;10083;51.038;7.012;2023-07-20T09:37:57;103400.16;;;23.66;nan
19845;BME280;10083;51.038;7.012;2023-07-20T09:40:25;103380.59;;;22.97;nan
19845;BME280;10083;51.038;7.012;2023-07-20T09:42:54;103398.47;;;23.86;nan
19845;BME280;10083;51.038;7.012;2023-07-20T09:45:29;103275.22;;;24.56;nan
19845;BME280;10083;51.038;7.012;2023-07-20T09:48:03;103150.78;;;24.40;nan
19845;BME280;10083;51.038;7.012;2023-07-20T09:50:33;103089.66;;;24.18;nan
19845;BME280;10083;51.038;7.012;2023-07-20T09:53:01;103093.66;;;23.87;nan
19845;BME280;10083;51.038;7.012;2023-07-20T09:55:29;103077.84;;;23.72;nan
19845;BME280;10083;51.038;7.012;2023-07-20T09:57:56;103032.69;;;24.66;nan
19845;BME280;10083;51.038;7.012;2023-07-20T10:00:23;102992.50;;;24.86;nan
19845;BME280;10083;51.038;7.012;2023-07-20T10:02:53;102945.19;;;24.23;nan
19845;BME280;10083;51.038;7.012;2023-07-20T10:05:23;102993.47;;;24.64;nan
19845;BME280;10083;51.038;7.012;2023-07-20T10:07:52;102997.59;;;24.93;nan
19845;BME280;10083;51.038;7.012;2023-07-20T10:10:20;102925.88;;;25.74;nan
19845;BME280;10083;51.038;7.012;2023-07-20T10:12:48;102947.59;;;25.07;nan
19845;BME280;10083;51.038;7.012;2023-07-20T10:15:20;102869.13;;;25.57;nan
19845;BME280;10083;51.038;7.012;2023-07-20T10:17:59;102800.78;;;25.51;nan
19845;BME280;10083;51.038;7.012;2023-07-20T10:20:30;102756.69;;;25.89;nan
19845;BME280;10083;51.038;7.012;2023-07-20T10:23:01;102663.28;;;25.57;nan
19845;BME280;10083;51.038;7.012;2023-07-20T10:25:29;102727.78;;;25.32;nan
19845;BME280;10083;51.038;7.012;2023-07-20T10:27:57;102785.16;;;25.19;nan
19845;BME280;10083;51.038;7.012;2023-07-20T10:30:26;102842.59;;;24.10;nan
19845;BME280;10083;51.038;7.012;2023-07-20T10:32:54;102948.91;;;23.58;nan
19845;BME280;10083;51.038;7.012;2023-07-20T10:35:23;103034.69;;;23.12;nan
19845;BME280;10083;51.038;7.012;2023-07-20T10:37:52;103081.78;;;23.43;nan
19845;BME280;10083;51.038;7.012;2023-07-20T10:40:30;103071.19;;;23.34;nan
19845;BME280;10083;51.038;7.012;2023-07-20T10:42:59;102956.47;;;24.74;nan
19845;BME280;10083;51.038;7.012;2023-07-20T10:45:36;102853.31;;;25.80;nan
19845;BME280;10083;51.038;7.012;2023-07-20T10:48:24;102600.41;;;27.05;nan
19845;BME280;10083;51.038;7.012;2023-07-20T10:51:14;102577.41;;;26.92;nan
19845;BME280;10083;51.038;7.012;2023-07-20T10:53:56;102478.34;;;26.78;nan
19845;BME280;10083;51.038;7.012;2023-07-20T10:56:58;102555.75;;;25.49;nan
19845;BME280;10083;51.038;7.012;2023-07-20T11:00:26;102628.38;;;26.06;nan
19845;BME280;10083;51.038;7.012;2023-07-20T11:03:31;102579.25;;;25.71;nan
19845;BME280;10083;51.038;7.012;2023-07-20T11:06:48;102452.47;;;26.96;nan
19845;BME280;10083;51.038;7.012;2023-07-20T11:09:55;102430.88;;;27.31;nan
19845;BME280;10083;51.038;7.012;2023-07-20T11:13:21;102273.44;;;30.06;nan
19845;BME280;10083;51.038;7.012;2023-07-20T11:16:17;102365.34;;;27.23;nan
19845;BME280;10083;51.038;7.012;2023-07-20T11:19:44;102458.13;;;26.79;nan
19845;BME280;10083;51.038;7.012;2023-07-20T11:22:46;102543.16;;;26.08;nan
19845;BME280;10083;51.038;7.012;2023-07-20T11:25:55;102517.50;;;25.78;nan
19845;BME280;10083;51.038;7.012;2023-07-20T11:29:07;102418.66;;;27.76;nan
19845;BME280;10083;51.038;7.012;2023-07-20T11:32:19;102153.28;;;29.32;nan
19845;BME280;10083;51.038;7.012;2023-07-20T11:36:00;102134.25;;;29.96;nan
19845;BME280;10083;51.038;7.012;2023-07-20T11:39:32;102067.78;;;29.75;nan
19845;BME280;10083;51.038;7.012;2023-07-20T11:42:54;101996.31;;;29.93;nan
19845;BME280;10083;51.038;7.012;2023-07-20T11:46:34;102251.41;;;27.78;nan
19845;BME280;10083;51.038;7.012;2023-07-20T11:50:18;102397.06;;;26.31;nan
19845;BME280;10083;51.038;7.012;2023-07-20T11:53:53;102394.50;;;26.42;nan
19845;BME280;10083;51.038;7.012;2023-07-20T12:00:03;102561.09;;;24.52;nan
19845;BME280;10083;51.038;7.012;2023-07-20T12:02:47;102655.81;;;23.84;nan
19845;BME280;10083;51.038;7.012;2023-07-20T12:08:18;102713.84;;;23.93;nan
19845;BME280;10083;51.038;7.012;2023-07-20T12:10:53;102683.72;;;23.74;nan
19845;BME280;10083;51.038;7.012;2023-07-20T12:14:02;102612.06;;;24.91;nan
19845;BME280;10083;51.038;7.012;2023-07-20T12:16:30;102518.91;;;25.85;nan
19845;BME280;10083;51.038;7.012;2023-07-20T12:19:00;102386.56;;;28.40;nan
19845;BME280;10083;51.038;7.012;2023-07-20T12:21:28;102329.53;;;28.53;nan
19845;BME280;10083;51.038;7.012;2023-07-20T12:24:03;102331.56;;;27.07;nan
19845;BME280;10083;51.038;7.012;2023-07-20T12:26:38;102476.94;;;25.51;nan
19845;BME280;10083;51.038;7.012;2023-07-20T12:29:07;102528.84;;;24.74;nan
19845;BME280;10083;51.038;7.012;2023-07-20T12:31:36;102631.16;;;24.22;nan
19845;BME280;10083;51.038;7.012;2023-07-20T12:34:23;102622.72;;;24.08;nan
19845;BME280;10083;51.038;7.012;2023-07-20T12:36:51;102630.22;;;23.85;nan
19845;BME280;10083;51.038;7.012;2023-07-20T12:39:18;102702.25;;;24.42;nan
19845;BME280;10083;51.038;7.012;2023-07-20T12:41:45;102611.63;;;24.81;nan
19845;BME280;10083;51.038;7.012;2023-07-20T12:44:19;102582.78;;;24.91;nan
19845;BME280;10083;51.038;7.012;2023-07-20T12:46:46;102555.63;;;24.87;nan
19845;BME280;10083;51.038;7.012;2023-07-20T12:49:15;102497.16;;;26.41;nan
19845;BME280;10083;51.038;7.012;2023-07-20T12:51:42;102229.88;;;28.70;nan
19845;BME280;10083;51.038;7.012;2023-07-20T12:54:20;102151.09;;;28.42;nan
19845;BME280;10083;51.038;7.012;2023-07-20T12:56:48;102177.16;;;29.09;nan
19845;BME280;10083;51.038;7.012;2023-07-20T12:59:28;102212.38;;;27.59;nan
19845;BME280;10083;51.038;7.012;2023-07-20T13:01:56;102294.22;;;26.76;nan
19845;BME280;10083;51.038;7.012;2023-07-20T13:04:31;102344.03;;;26.86;nan
19845;BME280;10083;51.038;7.012;2023-07-20T13:06:59;102390.69;;;26.15;nan
19845;BME280;10083;51.038;7.012;2023-07-20T13:09:26;102449.50;;;25.67;nan
19845;BME280;10083;51.038;7.012;2023-07-20T13:11:53;102434.72;;;25.38;nan
19845;BME280;10083;51.038;7.012;2023-07-20T13:14:23;102461.72;;;25.46;nan
19845;BME280;10083;51.038;7.012;2023-07-20T13:16:52;102416.28;;;26.31;nan
19845;BME280;10083;51.038;7.012;2023-07-20T13:19:20;102467.94;;;25.65;nan
19845;BME280;10083;51.038;7.012;2023-07-20T13:22:07;102504.25;;;24.90;nan
19845;BME280;10083;51.038;7.012;2023-07-20T13:24:35;102523.13;;;25.12;nan